Time;durP1;ratioP1;P1;durP2;ratioP2;P2;SDS_P1;SDS_P2;PMS_P1;PMS_P2;Temp;Humidity;BMP_temperature;BMP_pressure;BME280_temperature;BME280_humidity;BME280_pressure;Samples;Min_cycle;Max_cycle;Signal;HPM_P1;HPM_P2
2022/01/06 00:01:07;;;;;;;0.70;0.38;;;;;;;20.41;25.74;98897.16;5092499;28;20048;-67
2022/01/06 00:03:34;;;;;;;1.13;0.50;;;;;;;20.40;26.02;98896.34;5092272;28;20062;-68
2022/01/06 00:06:04;;;;;;;0.63;0.35;;;;;;;20.39;25.92;98905.09;5092346;28;20093;-68
2022/01/06 00:08:30;;;;;;;1.30;0.60;;;;;;;20.38;25.93;98886.84;5073238;28;20044;-68
2022/01/06 00:10:55;;;;;;;0.85;0.40;;;;;;;20.38;25.98;98909.03;5092371;28;20044;-68
2022/01/06 00:24:26;;;;;;;1.00;0.60;;;;;;;20.33;26.06;98897.09;5049532;28;20055;-67
2022/01/06 00:26:52;;;;;;;1.15;0.60;;;;;;;20.31;26.14;98907.00;5048977;28;20081;-67
2022/01/06 00:29:18;;;;;;;0.70;0.40;;;;;;;20.46;25.97;98905.19;5049339;28;20087;-67
2022/01/06 00:31:44;;;;;;;0.45;0.40;;;;;;;20.84;25.63;98906.63;5049221;28;20132;-67
2022/01/06 00:34:10;;;;;;;0.63;0.43;;;;;;;21.50;24.77;98909.38;5049139;28;20124;-67
2022/01/06 00:36:42;;;;;;;1.02;0.50;;;;;;;21.83;24.53;98911.88;5049077;28;20053;-67
2022/01/06 00:39:10;;;;;;;1.08;0.40;;;;;;;21.67;24.50;98911.44;5049179;28;20068;-67
2022/01/06 00:41:36;;;;;;;0.77;0.40;;;;;;;21.47;24.73;98915.75;5049245;28;20045;-67
2022/01/06 00:44:03;;;;;;;0.55;0.40;;;;;;;21.30;25.15;98925.63;5049133;28;20042;-67
2022/01/06 00:46:29;;;;;;;0.43;0.30;;;;;;;21.15;25.36;98931.06;5049058;28;20043;-67
2022/01/06 00:48:54;;;;;;;0.77;0.40;;;;;;;21.05;25.19;98936.56;5032294;28;20041;-67
2022/01/06 00:51:20;;;;;;;1.30;0.50;;;;;;;20.94;25.35;98925.38;5059238;28;20052;-67
2022/01/06 00:53:46;;;;;;;0.73;0.40;;;;;;;20.86;25.31;98945.97;5091290;28;20068;-69
2022/01/06 00:56:11;;;;;;;0.60;0.40;;;;;;;20.79;25.56;98943.16;5091457;28;20044;-68
2022/01/06 00:58:37;;;;;;;0.80;0.50;;;;;;;20.73;25.57;98939.94;5091404;28;20470;-67
2022/01/06 01:01:02;;;;;;;0.77;0.32;;;;;;;20.69;25.88;98947.44;5091489;28;20130;-67
2022/01/06 01:03:28;;;;;;;0.70;0.35;;;;;;;20.65;25.74;98940.25;5091349;28;20518;-68
2022/01/06 01:05:55;;;;;;;0.68;0.47;;;;;;;20.59;25.52;98954.50;5091391;28;20097;-67
2022/01/06 01:08:22;;;;;;;0.52;0.30;;;;;;;20.57;25.87;98956.06;5091426;28;20121;-67
2022/01/06 01:10:49;;;;;;;0.60;0.45;;;;;;;20.53;25.95;98958.03;5091248;28;20044;-67
2022/01/06 01:13:15;;;;;;;0.80;0.50;;;;;;;20.52;25.96;98973.09;5091037;28;20043;-67
2022/01/06 01:15:47;;;;;;;0.65;0.43;;;;;;;20.49;25.82;98969.09;5091059;28;20445;-67
2022/01/06 01:18:17;;;;;;;0.70;0.47;;;;;;;20.48;26.08;98977.81;5091255;28;20381;-67
2022/01/06 01:20:42;;;;;;;0.50;0.40;;;;;;;20.46;26.14;98982.97;5091139;28;20040;-68
2022/01/06 01:23:09;;;;;;;1.13;0.50;;;;;;;20.43;26.23;98981.72;5091132;28;20036;-67
2022/01/06 01:25:34;;;;;;;0.80;0.40;;;;;;;20.42;26.18;98985.66;5091095;28;20075;-68
2022/01/06 01:28:00;;;;;;;0.38;0.38;;;;;;;20.43;26.20;98992.00;5090815;28;20488;-67
2022/01/06 01:30:31;;;;;;;0.93;0.50;;;;;;;20.39;26.22;98993.97;5090838;28;20174;-68
2022/01/06 01:32:59;;;;;;;0.73;0.40;;;;;;;20.38;26.24;98997.94;5085734;28;20101;-67
2022/01/06 01:35:30;;;;;;;0.47;0.32;;;;;;;20.39;26.35;99010.63;5090776;28;20048;-67
2022/01/06 01:37:56;;;;;;;0.60;0.40;;;;;;;20.35;26.16;99014.16;5089721;28;20056;-67
2022/01/06 01:40:24;;;;;;;0.80;0.40;;;;;;;20.37;26.44;99018.56;5090835;28;20043;-68
2022/01/06 01:42:50;;;;;;;1.02;0.50;;;;;;;20.44;26.28;99011.13;5095463;28;20486;-68
2022/01/06 01:45:16;;;;;;;0.38;0.30;;;;;;;20.86;25.77;99009.91;5097811;28;20044;-67
2022/01/06 01:47:45;;;;;;;1.58;0.60;;;;;;;21.38;24.86;99017.06;5090559;28;20551;-68
2022/01/06 01:50:15;;;;;;;1.42;0.70;;;;;;;21.86;24.49;99024.44;5090539;28;20359;-67
2022/01/06 01:52:44;;;;;;;1.17;0.50;;;;;;;22.33;23.96;99029.03;5090688;28;20040;-67
2022/01/06 01:55:11;;;;;;;1.23;0.68;;;;;;;22.73;23.62;99025.13;5090495;28;20037;-67
2022/01/06 01:57:37;;;;;;;1.10;0.50;;;;;;;22.60;23.79;99018.34;5090523;28;20051;-67
2022/01/06 02:00:08;;;;;;;1.00;0.50;;;;;;;22.27;24.28;99022.25;5090224;28;20040;-67
2022/01/06 02:02:34;;;;;;;1.00;0.60;;;;;;;21.96;24.40;99013.38;5090326;28;20040;-67
2022/01/06 02:05:00;;;;;;;0.95;0.60;;;;;;;21.95;24.45;99022.13;5090183;28;20047;-67
2022/01/06 02:07:25;;;;;;;0.82;0.43;;;;;;;22.20;24.33;99022.22;5090338;28;20601;-67
2022/01/06 02:09:51;;;;;;;1.13;0.50;;;;;;;22.60;23.75;99023.09;5090273;28;20502;-68
2022/01/06 02:12:25;;;;;;;1.02;0.60;;;;;;;22.78;23.59;99015.53;5090161;28;20040;-68
2022/01/06 02:14:50;;;;;;;1.50;0.80;;;;;;;22.50;23.94;99021.88;5090125;28;20071;-68
2022/01/06 02:17:16;;;;;;;1.02;0.60;;;;;;;22.19;24.59;99021.44;5090139;28;20511;-67
2022/01/06 02:20:05;;;;;;;1.40;0.60;;;;;;;21.94;24.46;99029.69;5090384;28;20044;-67
2022/01/06 02:22:30;;;;;;;1.20;0.60;;;;;;;21.71;24.91;99029.94;5089542;28;20043;-67
2022/01/06 02:24:56;;;;;;;1.27;0.52;;;;;;;21.54;24.92;99029.88;5090227;28;20052;-67
2022/01/06 02:27:21;;;;;;;1.02;0.63;;;;;;;21.40;25.25;99034.16;5090174;28;20048;-68
2022/01/06 02:29:48;;;;;;;1.33;0.70;;;;;;;21.28;25.41;99037.25;5089995;28;20043;-68
2022/01/06 02:32:16;;;;;;;0.93;0.52;;;;;;;21.19;25.46;99039.53;5089827;28;20047;-68
2022/01/06 02:34:45;;;;;;;1.23;0.60;;;;;;;21.08;25.55;99035.91;5089980;28;20429;-68
2022/01/06 02:37:13;;;;;;;1.95;0.90;;;;;;;21.04;25.67;99043.41;5090130;28;20428;-67
2022/01/06 02:39:39;;;;;;;0.98;0.50;;;;;;;20.96;25.64;99038.97;5089890;28;20074;-67
2022/01/06 02:42:05;;;;;;;1.05;0.50;;;;;;;20.91;25.82;99048.47;5089977;28;20086;-67
2022/01/06 02:44:31;;;;;;;1.30;0.60;;;;;;;20.86;25.91;99037.72;5089923;28;20421;-67
2022/01/06 02:46:56;;;;;;;1.05;0.60;;;;;;;20.81;25.88;99044.41;5089890;28;20476;-68
2022/01/06 02:49:22;;;;;;;0.75;0.55;;;;;;;20.77;25.85;99040.78;5089630;28;20127;-67
2022/01/06 02:51:47;;;;;;;0.80;0.40;;;;;;;20.74;25.70;99044.34;5089749;28;20117;-68
2022/01/06 02:54:14;;;;;;;0.90;0.50;;;;;;;20.71;25.78;99047.88;5089723;28;20458;-67
2022/01/06 02:56:42;;;;;;;1.10;0.55;;;;;;;20.69;25.99;99043.91;5089516;28;20040;-68
2022/01/06 02:59:08;;;;;;;1.20;0.60;;;;;;;20.63;25.92;99037.88;5089532;28;20059;-68
2022/01/06 03:01:41;;;;;;;1.80;0.88;;;;;;;20.64;25.99;99039.47;5089589;28;20040;-67
2022/01/06 03:04:07;;;;;;;1.02;0.60;;;;;;;20.61;26.07;99046.59;5089509;28;20408;-67
2022/01/06 03:06:32;;;;;;;0.90;0.50;;;;;;;20.60;26.07;99055.34;5097779;28;20055;-68
2022/01/06 03:08:58;;;;;;;1.20;0.60;;;;;;;20.58;25.99;99043.81;5089358;28;20123;-68
2022/01/06 03:11:25;;;;;;;1.25;0.60;;;;;;;20.57;26.18;99051.34;5089358;28;20043;-68
2022/01/06 03:13:54;;;;;;;1.35;0.60;;;;;;;20.54;26.19;99045.75;5089194;28;20078;-67
2022/01/06 03:16:20;;;;;;;1.17;0.55;;;;;;;20.55;26.03;99047.34;5089524;28;20591;-68
2022/01/06 03:18:46;;;;;;;1.42;0.50;;;;;;;20.55;26.11;99052.88;5089353;28;20044;-68
2022/01/06 03:21:11;;;;;;;1.10;0.70;;;;;;;20.90;25.43;99049.66;5089264;28;20097;-68
2022/01/06 03:23:37;;;;;;;0.75;0.60;;;;;;;21.34;24.78;99037.69;5089173;28;20051;-68
2022/01/06 03:26:03;;;;;;;0.70;0.50;;;;;;;21.88;24.64;99041.59;5089201;28;20067;-68
2022/01/06 03:28:28;;;;;;;1.00;0.57;;;;;;;22.37;23.95;99045.78;5089199;28;20086;-67
2022/01/06 03:30:54;;;;;;;1.17;0.70;;;;;;;22.79;23.39;99051.41;5089225;28;20056;-68
2022/01/06 03:33:19;;;;;;;1.10;0.63;;;;;;;22.82;23.65;99058.19;5089143;28;20051;-68
2022/01/06 03:35:45;;;;;;;0.95;0.55;;;;;;;22.47;24.19;99054.13;5089076;28;20131;-68
2022/01/06 03:38:10;;;;;;;0.80;0.60;;;;;;;22.17;24.35;99050.88;5088911;28;20047;-68
2022/01/06 03:40:36;;;;;;;0.93;0.50;;;;;;;21.91;24.68;99049.13;5088962;28;20048;-68
2022/01/06 03:43:01;;;;;;;1.40;0.65;;;;;;;21.70;24.76;99064.53;5089015;28;20047;-68
2022/01/06 03:45:27;;;;;;;1.55;0.70;;;;;;;21.53;24.93;99065.25;5089149;28;20037;-68
2022/01/06 03:47:52;;;;;;;1.80;0.73;;;;;;;21.39;25.44;99065.16;5089016;28;20059;-68
2022/01/06 03:50:18;;;;;;;1.38;0.70;;;;;;;21.26;25.51;99064.63;5089155;28;20036;-68
2022/01/06 03:52:45;;;;;;;0.70;0.50;;;;;;;21.16;25.82;99074.50;5088999;28;20044;-68
2022/01/06 03:55:15;;;;;;;1.40;0.70;;;;;;;21.07;25.82;99070.44;5088891;28;20051;-68
2022/01/06 03:57:40;;;;;;;1.38;0.75;;;;;;;20.98;26.02;99062.41;5088873;28;20071;-68
2022/01/06 04:00:10;;;;;;;1.13;0.60;;;;;;;20.94;26.06;99071.94;5089454;28;20075;-68
2022/01/06 04:02:36;;;;;;;1.23;0.70;;;;;;;20.89;25.98;99082.22;5092187;28;20044;-68
2022/01/06 04:05:05;;;;;;;1.40;0.60;;;;;;;20.82;26.03;99081.34;5092130;28;20060;-68
2022/01/06 04:07:32;;;;;;;1.05;0.60;;;;;;;20.77;26.29;99088.03;5092172;28;20044;-67
2022/01/06 04:09:58;;;;;;;0.70;0.50;;;;;;;20.74;26.30;99086.03;5092189;28;20044;-67
2022/01/06 04:12:23;;;;;;;1.10;0.60;;;;;;;20.72;26.26;99088.41;5091888;28;20102;-68
2022/01/06 04:14:49;;;;;;;1.27;0.68;;;;;;;20.69;26.24;99097.50;5091985;28;20492;-68
2022/01/06 04:17:14;;;;;;;0.63;0.50;;;;;;;20.67;26.06;99099.88;5091915;28;20036;-67
2022/01/06 04:19:40;;;;;;;1.75;0.73;;;;;;;20.63;26.34;99093.47;5091884;28;20044;-68
2022/01/06 04:22:05;;;;;;;1.45;0.70;;;;;;;20.62;26.12;99091.88;5091816;28;20559;-68
2022/01/06 04:24:31;;;;;;;0.75;0.52;;;;;;;20.59;26.09;99095.41;5091906;28;20097;-67
2022/01/06 04:26:56;;;;;;;1.08;0.40;;;;;;;20.58;26.27;99102.16;5091871;28;20677;-67
2022/01/06 04:29:22;;;;;;;1.42;0.70;;;;;;;20.56;26.30;99098.94;5091934;28;20051;-67
2022/01/06 04:31:47;;;;;;;0.68;0.50;;;;;;;20.54;26.41;99095.75;5091852;28;20412;-67
2022/01/06 04:34:13;;;;;;;1.25;0.60;;;;;;;20.52;26.42;99098.13;5091672;28;20424;-67
2022/01/06 04:36:41;;;;;;;1.05;0.70;;;;;;;20.51;26.43;99097.31;5091668;28;20040;-67
2022/01/06 04:39:06;;;;;;;0.77;0.43;;;;;;;20.51;26.40;99102.09;5091426;28;20048;-67
2022/01/06 04:41:32;;;;;;;1.38;0.70;;;;;;;20.49;26.34;99104.41;5091416;28;20039;-68
2022/01/06 04:43:57;;;;;;;1.35;0.70;;;;;;;20.47;26.32;99104.00;5091502;28;20040;-67
2022/01/06 04:46:23;;;;;;;1.70;0.70;;;;;;;20.47;26.52;99109.56;5091604;28;20408;-68
2022/01/06 04:48:49;;;;;;;0.90;0.47;;;;;;;20.46;26.48;99105.19;5091546;28;20048;-67
2022/01/06 04:51:15;;;;;;;1.27;0.70;;;;;;;20.44;26.42;99100.03;5091419;28;20106;-68
2022/01/06 04:53:40;;;;;;;1.10;0.52;;;;;;;20.44;26.51;99107.53;5109444;28;20086;-68
2022/01/06 04:56:05;;;;;;;1.27;0.68;;;;;;;20.43;26.51;99111.47;5100850;28;20131;-68
2022/01/06 04:58:32;;;;;;;0.82;0.55;;;;;;;20.42;26.52;99105.09;5091393;28;20048;-68
2022/01/06 05:00:58;;;;;;;1.00;0.50;;;;;;;20.40;26.45;99113.03;5099741;28;20052;-68
2022/01/06 05:03:23;;;;;;;1.58;0.73;;;;;;;20.39;26.47;99107.84;5091499;28;20177;-68
2022/01/06 05:05:49;;;;;;;1.45;0.70;;;;;;;20.39;26.48;99116.19;5091509;28;20039;-68
2022/01/06 05:08:14;;;;;;;1.27;0.60;;;;;;;20.39;26.57;99113.41;5091352;28;20052;-68
2022/01/06 05:10:39;;;;;;;1.20;0.60;;;;;;;20.37;26.56;99129.66;5091101;28;20408;-68
2022/01/06 05:13:05;;;;;;;1.27;0.70;;;;;;;20.53;26.40;99124.72;5091092;28;20416;-68
2022/01/06 05:15:30;;;;;;;0.82;0.50;;;;;;;20.95;26.02;99123.56;5091154;28;20423;-68
2022/01/06 05:17:56;;;;;;;1.13;0.50;;;;;;;21.48;25.45;99134.38;5091007;28;20400;-68
2022/01/06 05:20:25;;;;;;;0.82;0.57;;;;;;;21.99;24.88;99123.97;5091023;28;20054;-67
2022/01/06 05:22:54;;;;;;;0.98;0.57;;;;;;;22.47;23.99;99136.94;5090959;28;20055;-67
2022/01/06 05:25:24;;;;;;;1.10;0.50;;;;;;;22.88;23.83;99140.28;5099421;28;20063;-68
2022/01/06 05:27:50;;;;;;;1.67;0.63;;;;;;;23.22;23.39;99145.53;5111216;28;20049;-68
2022/01/06 05:30:15;;;;;;;0.82;0.55;;;;;;;23.04;23.29;99137.13;5111190;28;20047;-68
2022/01/06 05:32:40;;;;;;;0.95;0.60;;;;;;;22.68;23.96;99144.59;5110240;28;20089;-68
2022/01/06 05:35:06;;;;;;;0.70;0.40;;;;;;;22.33;24.58;99134.91;5109900;28;20403;-68
2022/01/06 05:37:32;;;;;;;0.70;0.43;;;;;;;22.03;24.64;99140.72;5111047;28;20139;-68
2022/01/06 05:39:57;;;;;;;1.05;0.70;;;;;;;21.80;24.78;99137.41;5111019;28;20474;-68
2022/01/06 05:42:22;;;;;;;0.75;0.52;;;;;;;21.61;24.93;99152.38;5111067;28;20123;-69
2022/01/06 05:44:48;;;;;;;0.75;0.50;;;;;;;21.46;25.22;99156.22;5111028;28;20054;-68
2022/01/06 05:47:13;;;;;;;0.75;0.40;;;;;;;21.32;25.53;99157.72;5110996;28;20050;-69
2022/01/06 05:49:39;;;;;;;0.93;0.40;;;;;;;21.19;25.42;99150.00;5110994;28;20410;-68
2022/01/06 05:52:05;;;;;;;1.02;0.60;;;;;;;21.12;25.71;99153.50;5110258;28;20156;-68
2022/01/06 05:54:30;;;;;;;1.17;0.60;;;;;;;21.05;25.87;99151.47;5110891;28;20039;-68
2022/01/06 05:56:56;;;;;;;1.15;0.60;;;;;;;20.99;25.59;99157.75;5111131;28;20035;-68
2022/01/06 05:59:21;;;;;;;0.82;0.52;;;;;;;20.90;25.92;99155.28;5111146;28;20122;-67
2022/01/06 06:01:46;;;;;;;0.60;0.40;;;;;;;20.89;25.74;99162.03;5111055;28;20043;-68
2022/01/06 06:04:13;;;;;;;1.02;0.60;;;;;;;20.84;25.85;99154.81;5105553;28;20344;-68
2022/01/06 06:06:38;;;;;;;1.00;0.50;;;;;;;20.79;25.91;99159.97;5103982;28;20135;-68
2022/01/06 06:09:04;;;;;;;0.98;0.60;;;;;;;20.77;25.86;99160.31;5090456;28;20130;-68
2022/01/06 06:11:30;;;;;;;0.85;0.43;;;;;;;20.75;26.06;99162.69;5103681;28;20082;-68
2022/01/06 06:13:55;;;;;;;1.05;0.50;;;;;;;20.72;26.02;99171.00;5110470;28;20039;-68
2022/01/06 06:16:20;;;;;;;1.17;0.60;;;;;;;20.71;26.23;99164.59;5110318;28;20044;-70
2022/01/06 06:18:46;;;;;;;1.90;0.55;;;;;;;20.72;26.22;99171.00;5110386;28;20266;-68
2022/01/06 06:21:11;;;;;;;6.43;0.80;;;;;;;20.68;26.13;99167.38;5110391;28;20039;-67
2022/01/06 06:23:36;;;;;;;1.05;0.70;;;;;;;20.67;26.13;99172.13;5110026;28;20481;-68
2022/01/06 06:26:02;;;;;;;0.85;0.40;;;;;;;20.65;26.04;99176.47;5110342;28;20040;-68
2022/01/06 06:28:27;;;;;;;1.30;0.70;;;;;;;20.63;26.07;99182.38;5110619;28;20043;-68
2022/01/06 06:30:53;;;;;;;2.00;0.40;;;;;;;20.62;26.13;99178.00;5109546;28;20040;-67
2022/01/06 06:33:18;;;;;;;1.35;0.60;;;;;;;20.61;26.17;99179.19;5109978;28;20039;-67
2022/01/06 06:35:44;;;;;;;0.57;0.47;;;;;;;20.58;26.19;99179.97;5110447;28;20043;-67
2022/01/06 06:38:09;;;;;;;0.75;0.45;;;;;;;20.58;26.35;99180.75;5110274;28;20043;-67
2022/01/06 06:40:34;;;;;;;1.60;0.40;;;;;;;20.57;26.35;99189.44;5110034;28;20035;-68
2022/01/06 06:43:00;;;;;;;1.35;0.60;;;;;;;20.57;26.17;99181.13;5110067;28;20415;-67
2022/01/06 06:45:25;;;;;;;0.75;0.50;;;;;;;20.55;26.31;99183.47;5110067;28;20083;-68
2022/01/06 06:47:51;;;;;;;0.98;0.52;;;;;;;20.54;26.08;99191.03;5110123;28;20134;-67
2022/01/06 06:50:18;;;;;;;1.35;0.60;;;;;;;20.54;26.12;99190.22;5109509;28;20130;-68
2022/01/06 06:52:44;;;;;;;1.13;0.60;;;;;;;20.53;26.21;99188.63;5109623;28;20036;-67
2022/01/06 06:55:11;;;;;;;0.95;0.60;;;;;;;20.51;26.44;99191.78;5110107;28;20090;-68
2022/01/06 06:57:37;;;;;;;0.98;0.57;;;;;;;20.51;26.37;99191.78;5109811;28;20047;-67
2022/01/06 07:00:05;;;;;;;1.35;0.60;;;;;;;20.50;26.29;99197.69;5081456;28;20377;-67
2022/01/06 07:02:31;;;;;;;1.00;0.60;;;;;;;20.50;26.44;99201.31;5097336;28;20040;-68
2022/01/06 07:04:57;;;;;;;1.00;0.60;;;;;;;20.48;26.34;99197.28;5089858;28;20423;-67
2022/01/06 07:07:23;;;;;;;1.08;0.60;;;;;;;20.47;26.34;99204.81;5109903;28;20547;-68
2022/01/06 07:09:48;;;;;;;1.80;0.70;;;;;;;20.46;26.41;99206.00;5102634;28;20491;-67
2022/01/06 07:12:14;;;;;;;0.35;0.30;;;;;;;20.47;26.51;99207.59;5109730;28;20583;-67
2022/01/06 07:14:39;;;;;;;2.35;0.68;;;;;;;20.45;26.46;99209.16;5109572;28;20050;-67
2022/01/06 07:17:05;;;;;;;1.08;0.60;;;;;;;20.45;26.40;99206.38;5109759;28;20044;-68
2022/01/06 07:19:30;;;;;;;1.33;0.80;;;;;;;20.47;26.35;99215.13;5109641;28;20126;-68
2022/01/06 07:21:56;;;;;;;1.52;0.52;;;;;;;20.48;26.44;99219.50;5109757;28;20044;-67
2022/01/06 07:24:21;;;;;;;1.55;0.60;;;;;;;20.45;26.43;99223.06;5109568;28;20122;-68
2022/01/06 07:26:47;;;;;;;1.23;0.65;;;;;;;20.45;26.51;99232.19;5109610;28;20044;-67
2022/01/06 07:29:12;;;;;;;1.33;0.70;;;;;;;20.44;26.36;99227.00;5109456;28;20457;-67
2022/01/06 07:31:38;;;;;;;1.35;0.60;;;;;;;20.44;26.42;99224.22;5109415;28;20100;-67
2022/01/06 07:34:03;;;;;;;0.93;0.60;;;;;;;20.44;26.45;99232.53;5108971;28;20379;-68
2022/01/06 07:36:31;;;;;;;1.40;0.80;;;;;;;20.44;26.30;99233.38;5112316;28;20103;-67
2022/01/06 07:38:57;;;;;;;1.58;0.70;;;;;;;20.43;26.41;99228.97;5113078;28;20046;-67
2022/01/06 07:41:22;;;;;;;1.45;0.75;;;;;;;20.41;26.45;99230.50;5107561;28;20043;-67
2022/01/06 07:43:47;;;;;;;1.95;0.75;;;;;;;20.43;26.47;99233.69;5109001;28;20695;-67
2022/01/06 07:46:13;;;;;;;1.10;0.60;;;;;;;20.43;26.47;99233.69;5096541;28;20071;-67
2022/01/06 07:48:55;;;;;;;1.15;0.65;;;;;;;20.41;26.54;99242.41;5109995;28;20046;-67
2022/01/06 07:51:21;;;;;;;1.73;0.70;;;;;;;20.41;26.51;99238.84;5094141;28;20047;-67
2022/01/06 07:53:46;;;;;;;0.95;0.60;;;;;;;20.41;26.42;99239.63;5107157;28;20040;-67
2022/01/06 07:56:12;;;;;;;1.23;0.75;;;;;;;20.42;26.62;99246.78;5112751;28;20737;-67
2022/01/06 07:58:37;;;;;;;1.23;0.75;;;;;;;20.43;26.50;99255.91;5107756;28;20047;-68
2022/01/06 08:01:03;;;;;;;2.72;0.65;;;;;;;20.41;26.50;99245.19;5105359;28;20043;-68
2022/01/06 08:03:28;;;;;;;0.80;0.60;;;;;;;20.41;26.65;99247.97;5101181;28;20052;-68
2022/01/06 08:05:53;;;;;;;2.00;0.90;;;;;;;20.42;26.50;99251.53;5104450;28;20135;-68
2022/01/06 08:08:19;;;;;;;3.47;1.50;;;;;;;20.40;26.57;99254.69;5104053;28;20036;-69
2022/01/06 08:10:45;;;;;;;2.47;1.13;;;;;;;20.41;26.40;99261.84;5096966;28;20100;-66
2022/01/06 08:13:10;;;;;;;1.58;0.77;;;;;;;20.39;26.62;99264.22;5102775;28;20094;-66
2022/01/06 08:15:36;;;;;;;2.05;0.98;;;;;;;20.40;26.58;99262.25;5103620;28;20116;-66
2022/01/06 08:18:01;;;;;;;2.90;1.20;;;;;;;20.38;26.65;99261.81;5103235;28;20083;-68
2022/01/06 08:20:27;;;;;;;1.38;0.80;;;;;;;20.36;26.66;99256.66;5098553;28;20040;-66
2022/01/06 08:22:52;;;;;;;1.95;1.10;;;;;;;20.37;26.80;99260.22;5102484;28;20046;-67
2022/01/06 08:25:17;;;;;;;1.58;0.98;;;;;;;20.37;26.44;99269.34;5099135;28;20043;-67
2022/01/06 08:27:43;;;;;;;1.45;0.80;;;;;;;20.37;26.73;99263.81;5107600;28;20415;-67
2022/01/06 08:30:09;;;;;;;1.83;0.82;;;;;;;20.35;26.55;99263.34;5099937;28;20040;-68
2022/01/06 08:32:34;;;;;;;2.08;1.05;;;;;;;20.34;26.74;99270.88;5101299;28;20399;-69
2022/01/06 08:35:00;;;;;;;1.52;0.90;;;;;;;20.34;26.69;99267.31;5099956;28;20081;-69
2022/01/06 08:37:25;;;;;;;1.40;0.80;;;;;;;20.32;26.55;99266.91;5084092;28;20500;-69
2022/01/06 08:39:51;;;;;;;1.33;0.73;;;;;;;20.33;26.41;99263.72;5095284;28;20456;-69
2022/01/06 08:42:16;;;;;;;1.88;1.00;;;;;;;20.35;26.78;99272.50;5094226;28;20038;-70
2022/01/06 08:44:42;;;;;;;1.58;0.82;;;;;;;20.35;26.54;99274.47;5101465;28;20051;-67
2022/01/06 08:47:08;;;;;;;1.13;0.65;;;;;;;20.34;26.34;99282.00;5089462;28;20054;-67
2022/01/06 08:49:35;;;;;;;1.65;0.93;;;;;;;20.31;26.51;99274.44;5104669;28;20044;-67
2022/01/06 08:52:00;;;;;;;1.10;0.68;;;;;;;20.30;26.35;99283.94;5101087;28;20512;-67
2022/01/06 08:54:26;;;;;;;1.60;0.90;;;;;;;20.30;26.42;99294.25;5105280;28;20051;-67
2022/01/06 08:56:51;;;;;;;1.80;1.00;;;;;;;20.27;26.28;99289.44;5100969;28;20546;-67
2022/01/06 08:59:17;;;;;;;3.28;0.90;;;;;;;20.27;26.29;99298.56;5095316;28;20043;-67
2022/01/06 09:01:42;;;;;;;1.20;0.80;;;;;;;20.29;26.52;99301.78;5097313;28;21354;-67
2022/01/06 09:04:08;;;;;;;1.75;0.90;;;;;;;20.29;26.40;99301.78;5094092;28;20054;-67
2022/01/06 09:06:33;;;;;;;1.65;0.90;;;;;;;20.27;26.37;99306.91;5102954;28;20124;-67
2022/01/06 09:08:58;;;;;;;1.98;0.90;;;;;;;20.26;26.26;99298.94;5109193;28;20173;-67
2022/01/06 09:11:24;;;;;;;1.30;0.73;;;;;;;20.26;26.21;99298.94;5108459;28;20075;-67
2022/01/06 09:13:49;;;;;;;1.60;0.95;;;;;;;20.24;26.44;99291.00;5090699;28;20456;-67
2022/01/06 09:16:15;;;;;;;2.08;1.00;;;;;;;20.23;26.25;99292.16;5097938;28;20395;-67
2022/01/06 09:18:41;;;;;;;1.60;0.80;;;;;;;20.25;26.30;99300.91;5097208;28;20131;-67
2022/01/06 09:21:08;;;;;;;1.85;0.98;;;;;;;20.23;26.21;99286.63;5102792;28;20040;-69
2022/01/06 09:23:33;;;;;;;1.50;0.90;;;;;;;20.24;26.19;99285.44;5095820;28;20040;-70
2022/01/06 09:25:59;;;;;;;2.08;1.00;;;;;;;20.23;26.27;99283.84;5103453;28;20066;-69
2022/01/06 09:28:26;;;;;;;1.83;0.82;;;;;;;20.24;26.34;99292.97;5101118;28;20040;-69
2022/01/06 09:30:52;;;;;;;1.60;0.88;;;;;;;20.25;26.41;99295.38;5096346;28;20040;-69
2022/01/06 09:33:20;;;;;;;1.63;0.88;;;;;;;20.25;26.28;99297.34;5097525;28;20047;-70
2022/01/06 09:35:47;;;;;;;1.30;0.77;;;;;;;20.25;26.07;99287.03;5094086;28;20373;-69
2022/01/06 09:38:13;;;;;;;2.70;1.17;;;;;;;20.24;26.29;99296.53;5099344;28;20078;-68
2022/01/06 09:40:40;;;;;;;3.90;2.25;;;;;;;20.22;25.92;99298.91;5093330;28;20066;-68
2022/01/06 09:43:06;;;;;;;5.57;2.78;;;;;;;20.29;25.92;99290.69;5095876;28;20142;-68
2022/01/06 09:45:32;;;;;;;4.82;2.85;;;;;;;20.69;25.55;99297.59;5101636;28;20134;-70
2022/01/06 09:47:58;;;;;;;4.75;2.40;;;;;;;21.09;24.94;99293.34;5101135;28;20039;-69
2022/01/06 09:50:24;;;;;;;3.70;2.00;;;;;;;21.49;24.67;99294.59;5100183;28;20088;-68
2022/01/06 09:52:51;;;;;;;3.75;1.80;;;;;;;21.83;24.23;99293.31;5102714;28;20070;-68
2022/01/06 09:55:16;;;;;;;4.07;1.77;;;;;;;22.07;24.17;99297.50;5098068;28;20075;-67
2022/01/06 09:57:57;;;;;;;3.30;1.90;;;;;;;22.05;23.83;99293.50;5100355;28;20578;-68
2022/01/06 10:00:24;;;;;;;3.17;1.70;;;;;;;21.83;24.58;99292.53;5096487;28;20058;-68
2022/01/06 10:02:55;;;;;;;4.85;1.55;;;;;;;21.61;24.74;99297.09;5092377;28;20051;-67
2022/01/06 10:05:20;;;;;;;2.92;1.60;;;;;;;21.45;24.93;99290.97;5093787;28;20044;-68
2022/01/06 10:07:46;;;;;;;3.33;1.80;;;;;;;21.32;24.89;99290.44;5106466;28;20449;-68
2022/01/06 10:10:13;;;;;;;2.38;1.30;;;;;;;21.19;25.13;99292.66;5107971;28;20039;-67
2022/01/06 10:12:41;;;;;;;3.58;1.73;;;;;;;21.12;25.35;99298.13;5111968;28;20139;-68
2022/01/06 10:15:19;;;;;;;2.30;1.17;;;;;;;21.05;25.36;99292.50;5101146;28;20043;-67
2022/01/06 10:17:45;;;;;;;2.92;1.27;;;;;;;21.01;25.33;99291.66;5100556;28;20051;-67
2022/01/06 10:20:17;;;;;;;2.80;1.35;;;;;;;20.95;25.37;99293.16;5098412;28;20036;-67
2022/01/06 10:22:47;;;;;;;1.80;1.00;;;;;;;20.94;25.46;99288.78;5091864;28;20047;-67
2022/01/06 10:25:14;;;;;;;2.05;1.33;;;;;;;20.90;25.64;99285.97;5097552;28;20043;-67
2022/01/06 10:27:41;;;;;;;2.85;1.17;;;;;;;20.87;25.70;99298.66;5097925;28;20504;-67
2022/01/06 10:30:09;;;;;;;1.75;0.90;;;;;;;20.86;25.65;99296.25;5106548;28;20126;-68
2022/01/06 10:32:37;;;;;;;1.95;1.00;;;;;;;20.84;25.60;99302.16;5094549;28;20055;-69
2022/01/06 10:35:04;;;;;;;1.88;0.88;;;;;;;20.83;25.52;99299.78;5099069;28;20049;-68
2022/01/06 10:37:38;;;;;;;1.70;0.90;;;;;;;20.80;25.53;99293.00;5092721;28;20043;-67
2022/01/06 10:40:05;;;;;;;1.70;0.90;;;;;;;20.79;25.62;99293.38;5095157;28;20046;-69
2022/01/06 10:42:34;;;;;;;1.58;0.93;;;;;;;20.78;25.78;99287.00;5095556;28;20435;-67
2022/01/06 10:45:14;;;;;;;2.17;0.88;;;;;;;20.79;25.71;99302.53;5103083;28;20062;-68
2022/01/06 10:47:48;;;;;;;1.67;0.93;;;;;;;21.19;25.29;99292.66;5096159;28;20039;-69
2022/01/06 10:50:13;;;;;;;1.83;0.90;;;;;;;21.65;24.94;99298.75;5095465;28;20052;-69
2022/01/06 10:52:41;;;;;;;1.80;0.90;;;;;;;21.95;24.45;99290.25;5099586;28;20408;-67
2022/01/06 10:55:10;;;;;;;1.60;0.88;;;;;;;22.25;24.21;99289.31;5099204;28;20465;-67
2022/01/06 10:57:35;;;;;;;1.17;0.65;;;;;;;22.46;24.06;99295.03;5102157;28;20403;-68
2022/01/06 11:00:00;;;;;;;1.30;0.80;;;;;;;22.67;23.67;99297.13;5108379;28;20043;-68
2022/01/06 11:02:26;;;;;;;1.65;0.80;;;;;;;22.52;23.68;99287.09;5095219;28;20043;-67
2022/01/06 11:04:51;;;;;;;1.27;0.75;;;;;;;22.26;23.88;99282.53;5086466;28;20109;-68
2022/01/06 11:07:18;;;;;;;2.53;0.90;;;;;;;22.01;24.13;99284.34;5094368;28;20413;-67
2022/01/06 11:09:47;;;;;;;4.38;1.48;;;;;;;21.81;24.42;99287.34;5103710;28;20048;-67
2022/01/06 11:12:27;;;;;;;6.50;1.02;;;;;;;21.63;24.85;99286.38;5111031;28;20047;-68
2022/01/06 11:14:53;;;;;;;1.95;1.00;;;;;;;21.52;24.92;99277.13;5095862;28;20087;-69
2022/01/06 11:17:21;;;;;;;0.98;0.57;;;;;;;21.40;25.11;99295.69;5092231;28;20038;-68
2022/01/06 11:19:50;;;;;;;1.83;0.82;;;;;;;21.30;25.19;99287.25;5100349;28;20043;-69
2022/01/06 11:22:22;;;;;;;2.15;1.05;;;;;;;21.25;25.12;99285.56;5084778;28;20043;-68
2022/01/06 11:25:03;;;;;;;1.50;0.80;;;;;;;21.19;25.21;99277.94;5109919;28;20054;-68
2022/01/06 11:27:36;;;;;;;1.67;0.77;;;;;;;21.10;25.38;99284.63;5102713;28;20036;-68
2022/01/06 11:30:12;;;;;;;1.45;0.68;;;;;;;21.05;25.36;99293.28;5111113;28;20043;-69
2022/01/06 11:32:38;;;;;;;1.33;0.75;;;;;;;21.00;25.38;99281.69;5111858;28;20040;-68
2022/01/06 11:35:08;;;;;;;1.75;0.80;;;;;;;20.96;25.36;99290.00;5119315;28;20082;-69
2022/01/06 11:37:46;;;;;;;1.40;0.75;;;;;;;20.91;25.36;99284.78;5089374;28;20051;-69
2022/01/06 11:40:13;;;;;;;1.63;0.77;;;;;;;20.89;25.41;99287.94;5110684;28;20522;-69
2022/01/06 11:42:39;;;;;;;0.90;0.60;;;;;;;20.86;25.54;99294.28;5112144;28;20051;-69